Rankings de siempre
Mejores tiempos personales válidos de atleta a través de todos los eventos y temporadas. Cada atleta aparece una vez por división.
Busca por nombre y abre la página donde está clasificado este récord de división.
177,852 atletas clasificados
| Pos. | Pos. AG | Atleta | Nacionalidad | Categoría de edad | TiempoMejor tiempo | Diferencia |
|---|---|---|---|---|---|---|
| 13051 | #3533 | Sandy RobertsonGBR · M 25-29 · AG #3533 | GBR | M 25-29 | 1:09:12 | +18:34 |
| 13052 | #3534 | Boudewijn SchiermeierNED · M 25-29 · AG #3534 | NED | M 25-29 | 1:09:12 | +18:34 |
| 13053 | #3535 | Lucas FabreFRA · M 25-29 · AG #3535 | FRA | M 25-29 | 1:09:12 | +18:34 |
| 13054 | #1645 | Alf HardcastleGBR · M 16-24 · AG #1645 | GBR | M 16-24 | 1:09:12 | +18:34 |
| 13055 | #4044 | James ButlerGBR · M 30-34 · AG #4044 | GBR | M 30-34 | 1:09:12 | +18:34 |
| 13056 | #1643 | Luis ZimmermannGER · M 16-24 · AG #1643 | GER | M 16-24 | 1:09:12 | +18:34 |
| 13057 | #3532 | Matt DudleyGBR · M 25-29 · AG #3532 | GBR | M 25-29 | 1:09:12 | +18:34 |
| 13058 | #3536 | Mitch MathieAUS · M 25-29 · AG #3536 | AUS | M 25-29 | 1:09:12 | +18:34 |
| 13059 | #1344 | Anthony HarmesGBR · M 40-44 · AG #1344 | GBR | M 40-44 | 1:09:12 | +18:34 |
| 13060 | #4039 | Etienne BuessardFRA · M 30-34 · AG #4039 | FRA | M 30-34 | 1:09:12 | +18:34 |
| 13061 | #3531 | Nicolas PereiraFRA · M 25-29 · AG #3531 | FRA | M 25-29 | 1:09:12 | +18:34 |
| 13062 | #4045 | Billy DAINTYGBR · M 30-34 · AG #4045 | GBR | M 30-34 | 1:09:12 | +18:34 |
| 13063 | #4043 | Schalk KlopperRSA · M 30-34 · AG #4043 | RSA | M 30-34 | 1:09:12 | +18:34 |
| 13064 | #2718 | Aaron CartonESP · M 35-39 · AG #2718 | ESP | M 35-39 | 1:09:12 | +18:34 |
| 13065 | #4038 | Stuart SmithIRL · M 30-34 · AG #4038 | IRL | M 30-34 | 1:09:12 | +18:34 |
| 13066 | #3537 | Julien LafontFRA · M 25-29 · AG #3537 | FRA | M 25-29 | 1:09:12 | +18:34 |
| 13067 | #4040 | Florian DupratFRA · M 30-34 · AG #4040 | FRA | M 30-34 | 1:09:12 | +18:34 |
| 13068 | #1646 | Tommy PowerGBR · M 16-24 · AG #1646 | GBR | M 16-24 | 1:09:12 | +18:34 |
| 13069 | #4046 | Neizan Fernandez BirchwoodESP · M 30-34 · AG #4046 | ESP | M 30-34 | 1:09:12 | +18:34 |
| 13070 | #1 | Philip HardingIRL · M 70-74 · AG #1 | IRL | M 70-74 | 1:09:12 | +18:34 |
| 13071 | #2715 | Julian BerresheimGER · M 35-39 · AG #2715 | GER | M 35-39 | 1:09:12 | +18:34 |
| 13072 | #1343 | Tomasz TyrkaPOL · M 40-44 · AG #1343 | POL | M 40-44 | 1:09:12 | +18:34 |
| 13073 | #1342 | Pavel SkolaCZE · M 40-44 · AG #1342 | CZE | M 40-44 | 1:09:12 | +18:34 |
| 13074 | #2717 | Simonas KabasinskasLTU · M 35-39 · AG #2717 | LTU | M 35-39 | 1:09:12 | +18:34 |
| 13075 | #1345 | John ConnorIRL · M 40-44 · AG #1345 | IRL | M 40-44 | 1:09:12 | +18:34 |
Página 523 de 7,115